Time;durP1;ratioP1;P1;durP2;ratioP2;P2;SDS_P1;SDS_P2;PMS_P1;PMS_P2;Temp;Humidity;BMP_temperature;BMP_pressure;BME280_temperature;BME280_humidity;BME280_pressure;Samples;Min_cycle;Max_cycle;Signal;HPM_P1;HPM_P2
2022/03/04 00:02:17;;;;;;;37.97;21.77;;;4.50;99.90;;;;;;5047692;28;20218;-69
2022/03/04 00:04:45;;;;;;;41.10;21.33;;;4.40;99.90;;;;;;5031339;28;20217;-70
2022/03/04 00:07:11;;;;;;;37.10;22.40;;;4.40;99.90;;;;;;5030960;28;20341;-69
2022/03/04 00:09:37;;;;;;;35.87;22.00;;;4.40;99.90;;;;;;5030966;28;20281;-70
2022/03/04 00:12:03;;;;;;;35.23;19.63;;;4.40;99.90;;;;;;5047685;28;20187;-69
2022/03/04 00:14:30;;;;;;;38.90;21.27;;;4.40;99.90;;;;;;5032016;28;20195;-69
2022/03/04 00:16:56;;;;;;;34.00;21.87;;;4.40;99.90;;;;;;5032188;28;20278;-70
2022/03/04 00:19:21;;;;;;;34.87;21.70;;;4.40;99.90;;;;;;5032809;28;20285;-69
2022/03/04 00:21:50;;;;;;;40.03;21.80;;;4.40;99.90;;;;;;5030611;28;20197;-69
2022/03/04 00:24:23;;;;;;;37.87;21.87;;;4.40;99.90;;;;;;5047191;28;20210;-69
2022/03/04 00:26:51;;;;;;;36.57;21.67;;;4.40;99.90;;;;;;5017860;28;20194;-70
2022/03/04 00:29:17;;;;;;;38.63;20.10;;;4.30;99.90;;;;;;5031860;28;20718;-69
2022/03/04 00:31:43;;;;;;;35.40;20.07;;;4.30;99.90;;;;;;5030630;28;20187;-70
2022/03/04 00:34:10;;;;;;;40.80;22.93;;;4.20;99.90;;;;;;5031860;28;20195;-69
2022/03/04 00:36:36;;;;;;;35.37;20.80;;;4.20;99.90;;;;;;5047584;28;20179;-69
2022/03/04 00:39:08;;;;;;;32.80;20.30;;;4.10;99.90;;;;;;5032229;28;20637;-69
2022/03/04 00:41:34;;;;;;;28.13;17.63;;;4.10;99.90;;;;;;5031819;28;20714;-69
2022/03/04 00:44:00;;;;;;;37.13;22.23;;;4.10;99.90;;;;;;5030971;28;20219;-69
2022/03/04 00:46:26;;;;;;;40.23;21.63;;;4.10;99.90;;;;;;5032244;28;20191;-69
2022/03/04 00:48:52;;;;;;;34.23;21.53;;;4.10;99.90;;;;;;5047443;28;20182;-68
2022/03/04 00:51:18;;;;;;;40.97;22.60;;;4.10;99.90;;;;;;5047451;28;20644;-69
2022/03/04 00:53:44;;;;;;;39.53;21.53;;;4.00;99.90;;;;;;5030039;28;20198;-69
2022/03/04 00:56:11;;;;;;;35.00;21.23;;;4.00;99.90;;;;;;5034158;28;20190;-69
2022/03/04 00:58:37;;;;;;;37.03;19.83;;;4.00;99.90;;;;;;5051238;28;20225;-69
2022/03/04 01:01:05;;;;;;;40.90;19.40;;;4.10;99.90;;;;;;5033687;28;20190;-69
2022/03/04 01:03:31;;;;;;;33.30;19.97;;;4.10;99.90;;;;;;5050891;28;20569;-69
2022/03/04 01:05:59;;;;;;;36.63;19.73;;;4.00;99.90;;;;;;5035407;28;20687;-69
2022/03/04 01:08:25;;;;;;;36.73;19.87;;;4.00;99.90;;;;;;5034205;28;20222;-68
2022/03/04 01:10:51;;;;;;;37.77;20.40;;;3.90;99.90;;;;;;5050338;28;20272;-69
2022/03/04 01:13:17;;;;;;;39.03;21.03;;;3.80;99.90;;;;;;5033716;28;20276;-68
2022/03/04 01:15:43;;;;;;;38.73;21.20;;;3.80;99.90;;;;;;5034452;28;20179;-68
2022/03/04 01:18:09;;;;;;;39.03;21.50;;;3.80;99.90;;;;;;5033551;28;20245;-68
2022/03/04 01:20:34;;;;;;;37.17;20.83;;;3.70;99.90;;;;;;5034896;28;20190;-68
2022/03/04 01:23:01;;;;;;;32.77;19.20;;;3.70;99.90;;;;;;5033441;28;20337;-68
2022/03/04 01:25:27;;;;;;;36.17;19.30;;;3.70;99.90;;;;;;5015141;28;20270;-68
2022/03/04 01:27:53;;;;;;;40.00;20.33;;;3.70;99.90;;;;;;5014749;28;20241;-69
2022/03/04 01:30:19;;;;;;;37.17;20.13;;;3.60;99.90;;;;;;5032233;28;20182;-69
2022/03/04 01:32:45;;;;;;;46.53;20.53;;;3.60;99.90;;;;;;5034071;28;20244;-68
2022/03/04 01:35:12;;;;;;;35.07;20.20;;;3.60;99.90;;;;;;5016889;28;20191;-71
2022/03/04 01:37:38;;;;;;;38.27;19.83;;;3.50;99.90;;;;;;5034795;28;20186;-68
2022/03/04 01:40:06;;;;;;;31.87;18.80;;;3.50;99.90;;;;;;5034537;28;20187;-69
2022/03/04 01:42:34;;;;;;;36.93;18.67;;;3.60;99.90;;;;;;5049975;28;20271;-68
2022/03/04 01:45:00;;;;;;;36.83;19.27;;;3.60;99.90;;;;;;5034329;28;20693;-68
2022/03/04 01:47:25;;;;;;;30.80;18.47;;;3.60;99.90;;;;;;5033274;28;20195;-68
2022/03/04 01:49:51;;;;;;;35.27;19.60;;;3.50;99.90;;;;;;5034690;28;20190;-68
2022/03/04 01:52:18;;;;;;;32.97;18.63;;;3.50;99.90;;;;;;5033144;28;20635;-68
2022/03/04 01:54:43;;;;;;;39.13;19.27;;;3.50;99.90;;;;;;5034744;28;20198;-68
2022/03/04 01:57:09;;;;;;;32.43;18.70;;;3.50;99.90;;;;;;5034505;28;20187;-69
2022/03/04 01:59:35;;;;;;;33.90;19.10;;;3.50;99.90;;;;;;5016687;28;20191;-68
2022/03/04 02:02:01;;;;;;;34.30;18.57;;;3.60;99.90;;;;;;5034372;28;20179;-68
2022/03/04 02:04:27;;;;;;;38.27;18.43;;;3.60;99.90;;;;;;5033253;28;20199;-68
2022/03/04 02:06:53;;;;;;;40.97;19.33;;;3.70;99.90;;;;;;5033474;28;20644;-69
2022/03/04 02:09:19;;;;;;;36.37;18.73;;;3.60;99.90;;;;;;5033085;28;20281;-68
2022/03/04 02:11:45;;;;;;;32.00;17.53;;;3.70;99.90;;;;;;5034420;28;20198;-69
2022/03/04 02:14:12;;;;;;;34.30;17.00;;;3.90;99.90;;;;;;5016172;28;20276;-68
2022/03/04 02:16:45;;;;;;;32.33;17.27;;;3.80;99.90;;;;;;5033581;28;20663;-68
2022/03/04 02:19:11;;;;;;;30.93;16.53;;;3.80;99.90;;;;;;5049075;28;20620;-68
2022/03/04 02:21:52;;;;;;;30.87;17.60;;;3.90;99.90;;;;;;5033790;28;20175;-68
2022/03/04 02:24:19;;;;;;;28.83;16.37;;;3.80;99.90;;;;;;5034040;28;20214;-68
2022/03/04 02:26:45;;;;;;;30.90;16.97;;;4.00;99.90;;;;;;5032418;28;20194;-68
2022/03/04 02:29:11;;;;;;;32.03;17.20;;;4.10;99.90;;;;;;5015622;28;20554;-68
2022/03/04 02:31:37;;;;;;;30.77;16.67;;;3.90;99.90;;;;;;5032792;28;20187;-70
2022/03/04 02:34:03;;;;;;;30.43;17.03;;;3.90;99.90;;;;;;5038580;28;20193;-68
2022/03/04 02:36:28;;;;;;;30.20;17.20;;;3.90;99.90;;;;;;5032532;28;20197;-68
2022/03/04 02:38:54;;;;;;;31.57;18.23;;;3.90;99.90;;;;;;5032237;28;20191;-69
2022/03/04 02:41:20;;;;;;;34.63;17.97;;;3.90;99.90;;;;;;5033819;28;20546;-68
2022/03/04 02:43:46;;;;;;;26.90;16.87;;;3.80;99.90;;;;;;5033148;28;20230;-69
2022/03/04 02:46:13;;;;;;;33.57;16.53;;;3.80;99.90;;;;;;5018615;28;20190;-68
2022/03/04 02:48:39;;;;;;;30.73;16.47;;;3.70;99.90;;;;;;5015523;28;20183;-68
2022/03/04 02:51:05;;;;;;;32.77;16.33;;;3.80;99.90;;;;;;5033248;28;20187;-68
2022/03/04 02:53:31;;;;;;;27.80;16.13;;;3.80;99.90;;;;;;5032001;28;20187;-69
2022/03/04 02:55:57;;;;;;;30.10;17.17;;;3.90;99.90;;;;;;5028800;28;20195;-68
2022/03/04 02:58:23;;;;;;;34.37;16.13;;;4.00;99.90;;;;;;5025956;28;20597;-68
2022/03/04 03:00:48;;;;;;;31.40;17.67;;;3.80;99.90;;;;;;5012886;28;20530;-68
2022/03/04 03:03:14;;;;;;;29.63;16.33;;;3.90;99.90;;;;;;5043644;28;20214;-68
2022/03/04 03:05:40;;;;;;;32.73;17.10;;;3.90;99.90;;;;;;5033059;28;20191;-68
2022/03/04 03:08:05;;;;;;;27.60;14.87;;;4.00;99.90;;;;;;5031929;28;20187;-68
2022/03/04 03:10:32;;;;;;;29.77;16.50;;;3.80;99.90;;;;;;5032871;28;20187;-68
2022/03/04 03:12:58;;;;;;;26.73;15.47;;;3.80;99.90;;;;;;5031817;28;20644;-68
2022/03/04 03:15:24;;;;;;;27.77;16.30;;;3.70;99.90;;;;;;5031824;28;20206;-68
2022/03/04 03:17:50;;;;;;;33.90;17.03;;;3.50;99.90;;;;;;5031646;28;20640;-68
2022/03/04 03:20:16;;;;;;;29.50;16.43;;;3.50;99.90;;;;;;5031850;28;20222;-68
2022/03/04 03:22:41;;;;;;;32.67;18.73;;;3.50;99.90;;;;;;5031036;28;20214;-68
2022/03/04 03:25:08;;;;;;;32.23;17.13;;;3.40;99.90;;;;;;5031679;28;20645;-70
2022/03/04 03:27:34;;;;;;;36.13;17.20;;;3.30;99.90;;;;;;5048225;28;20189;-69
2022/03/04 03:29:59;;;;;;;28.40;17.37;;;3.30;99.90;;;;;;5032749;28;20190;-69
2022/03/04 03:32:25;;;;;;;29.73;16.33;;;3.30;99.90;;;;;;5048359;28;20199;-69
2022/03/04 03:34:51;;;;;;;28.70;17.30;;;3.30;99.90;;;;;;5046564;28;20354;-68
2022/03/04 03:37:17;;;;;;;32.40;16.97;;;3.40;99.90;;;;;;5032703;28;20269;-68
2022/03/04 03:39:42;;;;;;;28.23;16.73;;;3.30;99.90;;;;;;5031823;28;20187;-68
2022/03/04 03:42:08;;;;;;;33.67;15.93;;;3.20;99.90;;;;;;5031338;28;20600;-69
2022/03/04 03:44:34;;;;;;;28.13;15.20;;;3.10;99.90;;;;;;5032493;28;20193;-68
2022/03/04 03:47:00;;;;;;;31.57;16.57;;;3.00;99.90;;;;;;5032775;28;20273;-68
2022/03/04 03:49:26;;;;;;;26.90;16.30;;;3.00;99.90;;;;;;5031343;28;20277;-68
2022/03/04 03:51:51;;;;;;;33.20;17.03;;;3.00;99.90;;;;;;5031494;28;20201;-68
2022/03/04 03:54:17;;;;;;;35.97;16.17;;;3.10;99.90;;;;;;5032501;28;20201;-68
2022/03/04 03:56:43;;;;;;;31.97;16.47;;;3.10;99.90;;;;;;5031202;28;20248;-68
2022/03/04 03:59:08;;;;;;;30.17;15.93;;;3.00;99.90;;;;;;5030657;28;20193;-68
2022/03/04 04:06:43;;;;;;;28.43;14.77;;;3.10;99.90;;;;;;4574855;23;20234;-69
2022/03/04 04:09:09;;;;;;;29.60;16.83;;;3.00;99.90;;;;;;4996211;28;20195;-68
2022/03/04 04:11:36;;;;;;;33.83;18.10;;;2.90;99.90;;;;;;4993032;28;20253;-68
2022/03/04 04:14:04;;;;;;;29.63;17.03;;;2.80;99.90;;;;;;4993900;28;20211;-68
2022/03/04 04:16:30;;;;;;;28.60;17.10;;;2.70;99.90;;;;;;4994008;28;20190;-68
2022/03/04 04:18:58;;;;;;;36.73;17.53;;;2.70;99.90;;;;;;4993644;28;20192;-70
2022/03/04 04:21:25;;;;;;;31.97;16.80;;;2.70;99.90;;;;;;5011798;28;20187;-68
2022/03/04 04:23:52;;;;;;;27.67;15.67;;;2.70;99.90;;;;;;5008294;28;20240;-68
2022/03/04 04:26:17;;;;;;;28.50;16.50;;;2.60;99.90;;;;;;4994807;28;20188;-68
2022/03/04 04:28:43;;;;;;;30.47;16.93;;;2.60;99.90;;;;;;4994762;28;20199;-69
2022/03/04 04:31:08;;;;;;;27.10;16.23;;;2.60;99.90;;;;;;5003550;28;20184;-68
2022/03/04 04:33:34;;;;;;;31.40;16.30;;;2.60;99.90;;;;;;4997429;28;20199;-68
2022/03/04 04:36:00;;;;;;;30.40;16.37;;;2.60;99.90;;;;;;4997434;28;20634;-69
2022/03/04 04:38:26;;;;;;;29.50;15.80;;;2.50;99.90;;;;;;5013174;28;20591;-69
2022/03/04 04:40:51;;;;;;;27.93;15.47;;;2.50;99.90;;;;;;4979916;28;20571;-69
2022/03/04 04:43:17;;;;;;;26.33;16.47;;;2.50;99.90;;;;;;4996032;28;20211;-67
2022/03/04 04:45:43;;;;;;;25.57;15.70;;;2.40;99.90;;;;;;4997618;28;20526;-66
2022/03/04 04:48:08;;;;;;;22.60;13.93;;;2.40;99.90;;;;;;4994792;28;20705;-67
2022/03/04 04:50:34;;;;;;;30.83;15.93;;;2.40;99.90;;;;;;4995809;28;20199;-66
2022/03/04 04:53:00;;;;;;;28.93;15.70;;;2.40;99.90;;;;;;4995910;28;20188;-66
2022/03/04 04:55:25;;;;;;;29.57;15.93;;;2.30;99.90;;;;;;4998296;28;20188;-67
2022/03/04 04:57:51;;;;;;;29.97;16.73;;;2.30;99.90;;;;;;4998859;28;20675;-69
2022/03/04 05:00:17;;;;;;;28.60;17.33;;;2.30;99.90;;;;;;5009257;28;20199;-67
2022/03/04 05:02:44;;;;;;;36.87;17.43;;;2.30;99.90;;;;;;5004293;28;20217;-67
2022/03/04 05:05:10;;;;;;;25.60;16.13;;;2.20;99.90;;;;;;5007577;28;20271;-67
2022/03/04 05:07:36;;;;;;;24.23;15.80;;;2.20;99.90;;;;;;5011081;28;20606;-66
2022/03/04 05:10:03;;;;;;;30.67;15.63;;;2.20;99.90;;;;;;4995917;28;20199;-67
2022/03/04 05:12:29;;;;;;;35.10;18.03;;;2.20;99.90;;;;;;4996676;28;20219;-67
2022/03/04 05:14:55;;;;;;;29.93;15.77;;;2.20;99.90;;;;;;5007103;28;20238;-68
2022/03/04 05:17:21;;;;;;;28.30;15.50;;;2.20;99.90;;;;;;5006804;28;20194;-68
2022/03/04 05:19:47;;;;;;;26.53;15.87;;;2.30;99.90;;;;;;5015329;28;20217;-68
2022/03/04 05:22:13;;;;;;;31.77;17.77;;;2.20;99.90;;;;;;5007613;28;20195;-67
2022/03/04 05:24:38;;;;;;;35.67;16.80;;;2.20;99.90;;;;;;4998591;28;20191;-67
2022/03/04 05:27:04;;;;;;;28.70;16.43;;;2.10;99.90;;;;;;4986184;28;20196;-68
2022/03/04 05:29:30;;;;;;;29.97;15.73;;;2.10;99.90;;;;;;4995269;28;20202;-69
2022/03/04 05:31:56;;;;;;;30.13;16.73;;;2.00;99.90;;;;;;4996896;28;20191;-69
2022/03/04 05:34:21;;;;;;;33.90;16.00;;;2.00;99.90;;;;;;4996494;28;20196;-69
2022/03/04 05:36:47;;;;;;;32.10;16.90;;;1.80;99.90;;;;;;4994493;28;20195;-69
2022/03/04 05:39:13;;;;;;;26.97;15.07;;;1.80;99.90;;;;;;5008717;28;20252;-72
2022/03/04 05:41:39;;;;;;;32.47;17.67;;;1.90;99.90;;;;;;5013809;28;20201;-69
2022/03/04 05:44:07;;;;;;;26.47;17.37;;;1.90;99.90;;;;;;5013614;28;20230;-69
2022/03/04 05:46:33;;;;;;;24.00;15.10;;;1.90;99.90;;;;;;5010186;28;20207;-69
2022/03/04 05:48:59;;;;;;;31.63;16.10;;;1.90;99.90;;;;;;4995060;28;20195;-69
2022/03/04 05:51:25;;;;;;;31.10;18.33;;;1.90;99.90;;;;;;4995821;28;20190;-69
2022/03/04 05:53:51;;;;;;;29.00;16.00;;;1.90;99.90;;;;;;5013417;28;20198;-69
2022/03/04 05:56:18;;;;;;;36.93;18.23;;;1.90;99.90;;;;;;5006762;28;20191;-71
2022/03/04 05:58:47;;;;;;;25.73;15.60;;;1.90;99.90;;;;;;5009805;28;20194;-71
2022/03/04 06:01:13;;;;;;;31.77;15.97;;;1.90;99.90;;;;;;4995949;28;20195;-69
2022/03/04 06:03:39;;;;;;;36.40;18.17;;;1.80;99.90;;;;;;5004898;28;20225;-68
2022/03/04 06:06:05;;;;;;;36.17;16.97;;;1.80;99.90;;;;;;5002777;28;20191;-70
2022/03/04 06:08:31;;;;;;;37.43;18.37;;;1.80;99.90;;;;;;4995428;28;20288;-69
2022/03/04 06:10:57;;;;;;;33.17;17.47;;;1.80;99.90;;;;;;4996468;28;20707;-70
2022/03/04 06:13:23;;;;;;;26.53;15.00;;;1.80;99.90;;;;;;5005806;28;20198;-70
2022/03/04 06:15:49;;;;;;;32.07;17.97;;;1.70;99.90;;;;;;4995455;28;20278;-70
2022/03/04 06:18:15;;;;;;;32.57;16.97;;;1.80;99.90;;;;;;4995596;28;20673;-70
2022/03/04 06:20:41;;;;;;;29.40;16.43;;;1.80;99.90;;;;;;4995819;28;20195;-71
2022/03/04 06:23:06;;;;;;;29.53;16.97;;;1.80;99.90;;;;;;4995589;28;20302;-70
2022/03/04 06:25:32;;;;;;;30.83;17.53;;;1.70;99.90;;;;;;5004127;28;20277;-71
2022/03/04 06:28:00;;;;;;;38.90;17.73;;;1.70;99.90;;;;;;4994647;28;20619;-71
2022/03/04 06:30:29;;;;;;;33.03;17.33;;;1.70;99.90;;;;;;4995554;28;20211;-70
2022/03/04 06:33:30;;;;;;;37.87;17.53;;;1.60;99.90;;;;;;5003826;28;20198;-70
2022/03/04 06:35:42;;;;;;;38.10;17.67;;;1.60;99.90;;;;;;4995380;28;20200;-70
2022/03/04 06:38:09;;;;;;;24.30;15.43;;;1.60;99.90;;;;;;4995489;28;20701;-70
2022/03/04 06:40:35;;;;;;;34.17;16.00;;;1.60;99.90;;;;;;4995096;28;20196;-71
2022/03/04 06:43:01;;;;;;;33.33;15.67;;;1.70;99.90;;;;;;5001600;28;20309;-71
2022/03/04 06:45:27;;;;;;;32.80;18.83;;;1.70;99.90;;;;;;5011224;28;20202;-71
2022/03/04 06:47:53;;;;;;;29.53;16.70;;;1.70;99.90;;;;;;4993704;28;20180;-74
2022/03/04 06:50:18;;;;;;;27.03;15.27;;;1.80;99.90;;;;;;4993977;28;20195;-74
2022/03/04 06:52:44;;;;;;;35.23;19.87;;;1.80;99.90;;;;;;5011566;28;20190;-74
2022/03/04 06:55:10;;;;;;;30.03;16.57;;;1.80;99.90;;;;;;5011990;28;20647;-74
2022/03/04 06:57:37;;;;;;;37.93;17.77;;;1.80;99.90;;;;;;4976970;28;20341;-74
2022/03/04 07:00:07;;;;;;;32.50;17.57;;;1.80;99.90;;;;;;5014336;28;20190;-70
2022/03/04 07:02:35;;;;;;;30.10;18.37;;;1.80;99.90;;;;;;4994344;28;20309;-70
2022/03/04 07:05:06;;;;;;;30.67;17.13;;;1.90;99.90;;;;;;5008270;28;20206;-70
2022/03/04 07:07:32;;;;;;;28.70;15.90;;;1.90;99.90;;;;;;4994501;28;20234;-71
2022/03/04 07:09:57;;;;;;;29.67;16.70;;;2.00;99.90;;;;;;4993584;28;20278;-70
2022/03/04 07:12:23;;;;;;;35.70;18.13;;;2.00;99.90;;;;;;5007360;28;20206;-70
2022/03/04 07:14:50;;;;;;;33.43;18.07;;;2.00;99.90;;;;;;4995980;28;20602;-72
2022/03/04 07:17:16;;;;;;;31.00;17.60;;;2.10;99.90;;;;;;5010348;28;20194;-70
2022/03/04 07:19:42;;;;;;;30.23;16.93;;;2.20;99.90;;;;;;5009311;28;20278;-70
2022/03/04 07:22:11;;;;;;;28.93;16.17;;;2.30;99.90;;;;;;4993314;28;20619;-70
2022/03/04 07:24:37;;;;;;;32.40;16.27;;;2.30;99.90;;;;;;4996090;28;20196;-71
2022/03/04 07:27:03;;;;;;;30.07;17.83;;;2.40;99.90;;;;;;5013279;28;20179;-71
2022/03/04 07:29:29;;;;;;;29.27;16.60;;;2.60;99.90;;;;;;5007604;28;20279;-70
2022/03/04 07:31:55;;;;;;;33.87;17.67;;;3.60;99.90;;;;;;4993090;28;20183;-71
2022/03/04 07:34:28;;;;;;;27.87;15.70;;;5.10;99.90;;;;;;4994582;28;20203;-71
2022/03/04 07:36:53;;;;;;;26.97;15.83;;;6.40;99.90;;;;;;5004480;28;20663;-71
2022/03/04 07:39:19;;;;;;;31.77;16.60;;;7.50;99.90;;;;;;4996354;28;20191;-70
2022/03/04 07:41:48;;;;;;;29.50;16.27;;;8.40;99.90;;;;;;5013102;28;20211;-71
2022/03/04 07:44:16;;;;;;;31.27;16.97;;;9.00;99.90;;;;;;5004428;28;20259;-71
2022/03/04 07:46:42;;;;;;;27.60;16.97;;;9.90;99.90;;;;;;4986347;28;20195;-71
2022/03/04 07:49:08;;;;;;;24.57;15.47;;;10.40;99.90;;;;;;4979259;28;20281;-71
2022/03/04 07:51:34;;;;;;;25.07;16.63;;;10.90;99.90;;;;;;5007534;28;20192;-71
2022/03/04 07:54:00;;;;;;;24.53;14.97;;;11.50;99.90;;;;;;5000726;28;20572;-71
2022/03/04 07:56:25;;;;;;;23.50;15.47;;;11.00;99.90;;;;;;5002743;28;20192;-71
2022/03/04 07:58:51;;;;;;;24.13;16.47;;;11.40;99.90;;;;;;5002548;28;20194;-71
2022/03/04 08:01:17;;;;;;;25.13;15.95;;;11.70;99.90;;;;;;5001585;28;20278;-71
2022/03/04 08:03:43;;;;;;;24.55;15.20;;;12.30;99.90;;;;;;5012651;28;20211;-71
2022/03/04 08:06:09;;;;;;;28.73;15.75;;;12.90;99.90;;;;;;4999135;28;20191;-72
2022/03/04 08:08:35;;;;;;;26.23;16.10;;;12.90;99.90;;;;;;5011595;28;20210;-72
2022/03/04 08:11:01;;;;;;;24.08;15.93;;;12.90;99.90;;;;;;4997489;28;20184;-71
2022/03/04 08:13:28;;;;;;;25.08;15.02;;;12.90;99.90;;;;;;5006097;28;20574;-71
2022/03/04 08:15:53;;;;;;;21.92;15.50;;;12.90;99.90;;;;;;5008830;28;20590;-71
2022/03/04 08:18:19;;;;;;;23.27;15.25;;;12.80;99.90;;;;;;4998006;28;20226;-72
2022/03/04 08:20:45;;;;;;;25.75;15.75;;;13.10;99.90;;;;;;5015244;28;20673;-72
2022/03/04 08:23:14;;;;;;;26.33;16.38;;;13.50;99.90;;;;;;5011500;28;20223;-71
2022/03/04 08:25:40;;;;;;;24.13;16.00;;;13.30;99.90;;;;;;4998302;28;20192;-71
2022/03/04 08:28:06;;;;;;;20.63;14.02;;;12.30;99.90;;;;;;4997350;28;20275;-71
2022/03/04 08:30:32;;;;;;;24.85;14.70;;;11.90;99.90;;;;;;4997839;28;20664;-75
2022/03/04 08:32:59;;;;;;;30.80;16.77;;;11.30;99.90;;;;;;5011704;28;20266;-71
2022/03/04 08:35:25;;;;;;;25.10;16.27;;;10.80;99.90;;;;;;5010276;28;20302;-74
2022/03/04 08:37:54;;;;;;;25.57;16.50;;;9.70;99.90;;;;;;5011589;28;20188;-70
2022/03/04 08:40:20;;;;;;;24.47;15.37;;;8.90;99.90;;;;;;4996448;28;20187;-71
2022/03/04 08:42:46;;;;;;;25.43;15.57;;;9.00;99.90;;;;;;5010540;28;20226;-71
2022/03/04 08:45:14;;;;;;;27.27;14.07;;;8.60;99.90;;;;;;5015008;28;20202;-71
2022/03/04 08:47:43;;;;;;;24.27;15.23;;;8.20;99.90;;;;;;5003674;28;20194;-68
2022/03/04 08:50:14;;;;;;;25.60;15.60;;;7.60;99.90;;;;;;4996443;28;20184;-68
2022/03/04 08:52:40;;;;;;;23.90;15.23;;;7.20;99.90;;;;;;5014340;28;20198;-71
2022/03/04 08:55:17;;;;;;;20.73;13.77;;;6.60;99.90;;;;;;5011438;28;20188;-71
2022/03/04 08:57:47;;;;;;;24.03;14.03;;;6.60;99.90;;;;;;5007882;28;20257;-71
2022/03/04 09:00:14;;;;;;;30.30;15.83;;;6.90;99.90;;;;;;4999499;28;20664;-71
2022/03/04 09:02:40;;;;;;;23.90;13.67;;;6.80;99.90;;;;;;5002256;28;20266;-71
2022/03/04 09:05:06;;;;;;;24.70;14.87;;;7.00;99.90;;;;;;5005126;28;20227;-71
2022/03/04 09:07:32;;;;;;;26.77;15.57;;;7.00;99.90;;;;;;4996030;28;20278;-71
2022/03/04 09:09:58;;;;;;;23.47;14.83;;;7.10;99.90;;;;;;4995831;28;20184;-71
2022/03/04 09:12:24;;;;;;;25.90;15.10;;;7.20;99.90;;;;;;4996973;28;20196;-70
2022/03/04 09:14:50;;;;;;;26.90;14.33;;;7.20;99.90;;;;;;5007720;28;20345;-71
2022/03/04 09:17:15;;;;;;;21.50;14.10;;;7.30;99.90;;;;;;5015514;28;20193;-70
2022/03/04 09:19:41;;;;;;;25.13;14.67;;;7.40;99.90;;;;;;5013924;28;20189;-72
2022/03/04 09:22:07;;;;;;;26.40;14.43;;;7.60;99.90;;;;;;4997468;28;20191;-70
2022/03/04 09:24:32;;;;;;;29.17;15.90;;;7.80;99.90;;;;;;5015833;28;20215;-75
2022/03/04 09:26:58;;;;;;;24.20;14.73;;;7.90;99.90;;;;;;5004863;28;20228;-71
2022/03/04 09:29:23;;;;;;;21.40;13.27;;;8.10;99.90;;;;;;4979030;28;20200;-71
2022/03/04 09:31:52;;;;;;;22.33;13.33;;;8.20;99.90;;;;;;4989908;28;20316;-72
2022/03/04 09:34:18;;;;;;;26.43;14.53;;;8.30;99.90;;;;;;4996454;28;20266;-70
2022/03/04 09:36:44;;;;;;;22.43;13.47;;;8.40;99.90;;;;;;5011910;28;20234;-70
2022/03/04 09:39:10;;;;;;;23.57;13.50;;;8.40;99.90;;;;;;4999377;28;20591;-70
2022/03/04 09:41:39;;;;;;;26.97;13.40;;;8.40;99.90;;;;;;5011863;28;20195;-71
2022/03/04 09:44:05;;;;;;;19.87;13.40;;;8.50;99.90;;;;;;5013639;28;20302;-71
2022/03/04 09:46:31;;;;;;;26.03;14.53;;;8.60;99.90;;;;;;5004157;28;20192;-71
2022/03/04 09:48:57;;;;;;;23.83;12.73;;;8.60;99.90;;;;;;4997553;28;20666;-71
2022/03/04 09:51:23;;;;;;;20.13;11.47;;;8.60;99.90;;;;;;5006101;28;20188;-71
2022/03/04 09:53:51;;;;;;;20.97;13.33;;;8.80;99.90;;;;;;5005954;28;20299;-71
2022/03/04 09:56:19;;;;;;;21.17;12.70;;;8.90;99.90;;;;;;5013939;28;20187;-71
2022/03/04 09:58:45;;;;;;;21.90;13.37;;;8.80;99.90;;;;;;5010205;28;20191;-70
2022/03/04 10:01:13;;;;;;;24.20;14.00;;;8.80;99.90;;;;;;5009193;28;20524;-71
2022/03/04 10:03:46;;;;;;;22.90;12.20;;;8.80;99.90;;;;;;5013053;28;20221;-70
2022/03/04 10:06:13;;;;;;;22.87;13.30;;;8.90;99.90;;;;;;4996015;28;20191;-70
2022/03/04 10:08:50;;;;;;;21.17;12.87;;;9.00;99.90;;;;;;5009575;28;20239;-71
2022/03/04 10:11:31;;;;;;;17.90;12.03;;;8.90;99.90;;;;;;4996354;28;20604;-71
2022/03/04 10:14:07;;;;;;;24.20;13.33;;;8.90;99.90;;;;;;4998448;28;20713;-71
2022/03/04 10:16:35;;;;;;;22.17;13.03;;;9.00;99.90;;;;;;5009398;28;20183;-70
2022/03/04 10:19:13;;;;;;;21.03;12.73;;;9.00;99.90;;;;;;4995323;28;20192;-71
2022/03/04 10:21:58;;;;;;;26.07;15.03;;;9.00;99.90;;;;;;5012890;28;20187;-71
2022/03/04 10:24:30;;;;;;;18.57;11.80;;;9.10;99.90;;;;;;4995546;28;20211;-71
2022/03/04 10:27:07;;;;;;;19.87;12.70;;;9.10;99.90;;;;;;4995432;28;20187;-71
2022/03/04 10:29:42;;;;;;;22.87;13.27;;;9.20;99.90;;;;;;4995650;28;20186;-72
2022/03/04 10:32:14;;;;;;;24.07;12.50;;;9.20;99.90;;;;;;5006969;28;20183;-72
2022/03/04 10:35:04;;;;;;;23.90;13.57;;;9.20;99.90;;;;;;4994257;28;20663;-71
2022/03/04 10:37:56;;;;;;;23.10;13.13;;;9.40;99.90;;;;;;4994737;28;20564;-71
2022/03/04 10:40:27;;;;;;;24.43;12.50;;;9.50;99.90;;;;;;4993832;28;20303;-70
2022/03/04 10:42:54;;;;;;;24.73;13.70;;;9.50;99.90;;;;;;4995210;28;20239;-71
2022/03/04 10:45:22;;;;;;;23.50;13.67;;;9.60;99.90;;;;;;4994774;28;20299;-70
2022/03/04 10:47:49;;;;;;;23.63;13.20;;;9.70;99.90;;;;;;5012948;28;20222;-71
2022/03/04 10:50:18;;;;;;;24.20;13.80;;;9.90;99.90;;;;;;5004548;28;20656;-71
2022/03/04 10:52:56;;;;;;;20.20;12.47;;;10.00;99.90;;;;;;5013487;28;20651;-71
2022/03/04 10:55:25;;;;;;;22.70;13.27;;;10.00;99.90;;;;;;5013221;28;20651;-71
2022/03/04 10:57:52;;;;;;;20.47;13.17;;;10.00;99.90;;;;;;5001803;28;20271;-72
2022/03/04 11:00:30;;;;;;;20.37;13.07;;;10.00;99.90;;;;;;4993465;28;20199;-71
2022/03/04 11:02:56;;;;;;;20.43;12.90;;;10.20;99.90;;;;;;4993342;28;20585;-72
2022/03/04 11:05:23;;;;;;;21.97;12.53;;;10.30;99.90;;;;;;4995258;28;20204;-71
2022/03/04 11:07:49;;;;;;;23.87;13.43;;;10.30;99.90;;;;;;5009594;28;20209;-72
2022/03/04 11:10:16;;;;;;;23.20;13.63;;;10.40;99.90;;;;;;5008263;28;20280;-72
2022/03/04 11:12:42;;;;;;;18.33;12.37;;;10.50;99.90;;;;;;4995228;28;20231;-72
2022/03/04 11:15:11;;;;;;;23.67;14.27;;;10.50;99.90;;;;;;4995717;28;20191;-72
2022/03/04 11:17:38;;;;;;;21.73;12.93;;;10.80;99.90;;;;;;5012062;28;20228;-72
2022/03/04 11:20:06;;;;;;;23.53;12.77;;;10.90;99.90;;;;;;5000999;28;20183;-71
2022/03/04 11:22:38;;;;;;;23.37;13.17;;;11.20;99.90;;;;;;4996120;28;20255;-72
2022/03/04 11:25:06;;;;;;;23.37;14.27;;;11.00;99.90;;;;;;4999992;28;20184;-72
2022/03/04 11:27:39;;;;;;;23.77;13.93;;;11.10;99.90;;;;;;5010672;28;20667;-72
2022/03/04 11:30:05;;;;;;;22.30;13.00;;;11.20;99.90;;;;;;5013034;28;20187;-72
2022/03/04 11:32:32;;;;;;;24.97;15.07;;;11.20;99.90;;;;;;4996357;28;20215;-72
2022/03/04 11:34:58;;;;;;;24.63;14.73;;;11.30;99.90;;;;;;4994837;28;20274;-72
2022/03/04 11:37:23;;;;;;;20.87;12.60;;;11.50;99.90;;;;;;4993202;28;20235;-72
2022/03/04 11:42:57;;;;;;;24.17;13.77;;;11.40;99.90;;;;;;4994971;28;20315;-73
2022/03/04 11:45:33;;;;;;;22.97;14.50;;;11.30;99.90;;;;;;4993191;28;20270;-71
2022/03/04 11:48:11;;;;;;;23.08;13.70;;;11.40;99.90;;;;;;5003031;28;20306;-72
2022/03/04 11:50:47;;;;;;;25.02;13.43;;;11.40;99.90;;;;;;4998628;28;20188;-72
2022/03/04 11:53:17;;;;;;;23.97;14.77;;;11.40;99.90;;;;;;4994350;28;20200;-72
2022/03/04 11:56:07;;;;;;;22.90;13.77;;;11.50;99.90;;;;;;4993870;28;20190;-72
2022/03/04 11:58:54;;;;;;;24.20;15.20;;;11.60;99.90;;;;;;4998487;28;20183;-72
2022/03/04 12:01:26;;;;;;;20.75;13.23;;;11.50;99.90;;;;;;5008285;28;20222;-72
2022/03/04 12:04:14;;;;;;;27.97;14.10;;;11.40;99.90;;;;;;4993644;28;20212;-72
2022/03/04 12:06:41;;;;;;;24.23;15.87;;;11.50;99.90;;;;;;4993990;28;20180;-73
2022/03/04 12:09:29;;;;;;;25.00;14.80;;;11.50;99.90;;;;;;5001622;28;20191;-72
2022/03/04 12:12:13;;;;;;;23.20;12.77;;;11.40;99.90;;;;;;4993804;28;20593;-72
2022/03/04 12:14:45;;;;;;;24.30;14.23;;;11.70;99.90;;;;;;4996567;28;20187;-72
2022/03/04 12:17:15;;;;;;;20.23;13.32;;;11.90;99.90;;;;;;5012963;28;20282;-72
2022/03/04 12:19:42;;;;;;;25.27;14.45;;;12.00;99.90;;;;;;5011310;28;20538;-72
2022/03/04 12:22:11;;;;;;;20.40;13.27;;;12.20;99.90;;;;;;5012438;28;20200;-72
2022/03/04 12:24:37;;;;;;;24.92;15.13;;;12.20;99.90;;;;;;5003171;28;20219;-71
2022/03/04 12:27:04;;;;;;;24.20;14.43;;;12.40;99.90;;;;;;5001873;28;20202;-71
2022/03/04 12:29:44;;;;;;;21.88;13.88;;;12.40;99.90;;;;;;4993527;28;20264;-71
2022/03/04 12:32:10;;;;;;;20.02;13.98;;;12.20;99.90;;;;;;5006603;28;20179;-71
2022/03/04 12:34:38;;;;;;;21.83;13.05;;;12.30;99.90;;;;;;5002437;28;20273;-72
2022/03/04 12:37:08;;;;;;;21.08;12.82;;;12.30;99.90;;;;;;5006395;28;20282;-71
2022/03/04 12:39:38;;;;;;;21.65;12.85;;;12.20;99.90;;;;;;4995600;28;20195;-71
2022/03/04 12:42:07;;;;;;;29.02;14.70;;;12.20;99.90;;;;;;5010720;28;20274;-72
2022/03/04 12:44:36;;;;;;;20.90;12.75;;;11.90;99.90;;;;;;5012438;28;20285;-71
2022/03/04 12:47:02;;;;;;;23.73;13.90;;;11.90;99.90;;;;;;5007783;28;20203;-73